This is the latest recevied weather packets stored in our database for station/object MS0SIA-10. If no packets are shown the sender has not sent any weather packets the latest 10 day(s).
| Time | Temp. | Humidity | Pressure | Rain* | Wind** | Luminosity | Snow |
|---|---|---|---|---|---|---|---|
| 1788592939 | 12.22° C | 100% | 1042.3 hPa | - | - | - | - |
| 1788592038 | 12.22° C | 100% | 1042 hPa | - | - | - | - |
| 1788591138 | 12.22° C | 100% | 1041.9 hPa | - | - | - | - |
| 1788590238 | 12.78° C | 100% | 1041.7 hPa | - | - | - | - |
| 1788589338 | 12.78° C | 100% | 1041.4 hPa | - | - | - | - |
| 1788588438 | 12.78° C | 100% | 1041.3 hPa | - | - | - | - |
| 1788587538 | 12.78° C | 100% | 1041.1 hPa | - | - | - | - |
| 1788586638 | 12.78° C | 100% | 1040.9 hPa | - | - | - | - |
| 1788585738 | 12.78° C | 100% | 1040.7 hPa | - | - | - | - |
| 1788557835 | 14.44° C | 100% | 1034.3 hPa | - | - | - | - |
| 1788552435 | 15° C | 100% | 1032.5 hPa | - | - | - | - |
| 1788543433 | 15° C | 100% | 1031.7 hPa | - | - | - | - |
| 1788539833 | 15° C | 100% | 1031.5 hPa | - | - | - | - |
| 1788538032 | 15° C | 100% | 1030.9 hPa | - | - | - | - |
| 1788536232 | 15° C | 100% | 1030.7 hPa | - | - | - | - |
| 1788534432 | 15° C | 100% | 1030.2 hPa | - | - | - | - |
| 1788533532 | 14.44° C | 100% | 1030 hPa | - | - | - | - |
| 1788532631 | 14.44° C | 100% | 1030 hPa | - | - | - | - |
| 1788531731 | 14.44° C | 100% | 1029.8 hPa | - | - | - | - |
| 1788529031 | 14.44° C | 100% | 1029.1 hPa | - | - | - | - |
| 1788526392 | 13.89° C | 100% | 1028.3 hPa | - | - | - | - |
| 1788525492 | 13.89° C | 100% | 1028.2 hPa | - | - | - | - |
| 1788524592 | 13.89° C | 100% | 1027.8 hPa | - | - | - | - |
| 1788521891 | 13.89° C | 100% | 1027 hPa | - | - | - | - |
| 1788520991 | 13.33° C | 100% | 1026.5 hPa | - | - | - | - |
* Rain since midnight (hover to see other rain measurements)
** Current wind speed in m/s (hover to see current wind gust speed)